sensor_id;sensor_type;location;lat;lon;timestamp;noise_LAeq;noise_LA_min;noise_LA_max;noise_LA01;noise_LA95
78074;Laerm;67283;50.960;13.856;2024-03-23T00:55:49;34.76;33.85;47.70;;
78074;Laerm;67283;50.960;13.856;2024-03-23T00:58:14;35.49;33.98;54.98;;
78074;Laerm;67283;50.960;13.856;2024-03-23T01:00:39;34.62;33.71;35.44;;
78074;Laerm;67283;50.960;13.856;2024-03-23T01:03:05;34.67;33.73;47.50;;
78074;Laerm;67283;50.960;13.856;2024-03-23T01:05:30;34.57;33.81;35.75;;
78074;Laerm;67283;50.960;13.856;2024-03-23T01:07:56;34.47;33.52;35.68;;
78074;Laerm;67283;50.960;13.856;2024-03-23T01:10:21;34.46;33.73;35.47;;
78074;Laerm;67283;50.960;13.856;2024-03-23T01:12:47;34.63;33.50;44.72;;
78074;Laerm;67283;50.960;13.856;2024-03-23T01:15:12;34.27;33.40;35.27;;
78074;Laerm;67283;50.960;13.856;2024-03-23T01:17:37;34.26;33.51;34.91;;
78074;Laerm;67283;50.960;13.856;2024-03-23T01:20:03;34.85;33.69;47.22;;
78074;Laerm;67283;50.960;13.856;2024-03-23T01:22:29;34.64;33.65;50.27;;
78074;Laerm;67283;50.960;13.856;2024-03-23T01:24:54;34.44;33.73;41.83;;
78074;Laerm;67283;50.960;13.856;2024-03-23T01:27:20;34.68;33.60;51.70;;
78074;Laerm;67283;50.960;13.856;2024-03-23T01:29:45;34.36;33.37;39.91;;
78074;Laerm;67283;50.960;13.856;2024-03-23T01:32:10;34.43;33.60;35.12;;
78074;Laerm;67283;50.960;13.856;2024-03-23T01:34:36;34.44;33.43;35.29;;
78074;Laerm;67283;50.960;13.856;2024-03-23T01:37:01;34.42;33.42;35.15;;
78074;Laerm;67283;50.960;13.856;2024-03-23T01:39:27;34.56;33.71;50.34;;
78074;Laerm;67283;50.960;13.856;2024-03-23T01:41:52;35.01;33.39;56.10;;
78074;Laerm;67283;50.960;13.856;2024-03-23T01:44:18;34.57;33.55;47.07;;
78074;Laerm;67283;50.960;13.856;2024-03-23T01:46:43;51.55;33.72;67.70;;
78074;Laerm;67283;50.960;13.856;2024-03-23T01:49:09;34.43;33.61;35.22;;
78074;Laerm;67283;50.960;13.856;2024-03-23T01:51:35;34.46;33.71;35.21;;
78074;Laerm;67283;50.960;13.856;2024-03-23T01:54:01;34.58;33.69;39.53;;
78074;Laerm;67283;50.960;13.856;2024-03-23T01:56:34;34.54;33.69;35.28;;
78074;Laerm;67283;50.960;13.856;2024-03-23T01:59:03;34.42;33.63;35.15;;
78074;Laerm;67283;50.960;13.856;2024-03-23T02:01:28;34.42;33.53;35.19;;
78074;Laerm;67283;50.960;13.856;2024-03-23T02:03:54;35.08;33.85;54.39;;
78074;Laerm;67283;50.960;13.856;2024-03-23T02:06:19;35.73;33.76;57.02;;
78074;Laerm;67283;50.960;13.856;2024-03-23T02:08:44;34.74;33.61;50.59;;
78074;Laerm;67283;50.960;13.856;2024-03-23T02:11:10;34.51;33.63;48.27;;
78074;Laerm;67283;50.960;13.856;2024-03-23T02:13:35;52.12;33.78;67.98;;
78074;Laerm;67283;50.960;13.856;2024-03-23T02:16:01;53.75;33.78;69.64;;
78074;Laerm;67283;50.960;13.856;2024-03-23T02:18:26;35.05;33.76;47.31;;
78074;Laerm;67283;50.960;13.856;2024-03-23T02:20:52;35.42;33.97;39.80;;
78074;Laerm;67283;50.960;13.856;2024-03-23T02:23:17;34.57;33.68;38.45;;
78074;Laerm;67283;50.960;13.856;2024-03-23T02:25:45;34.42;33.51;36.17;;
78074;Laerm;67283;50.960;13.856;2024-03-23T02:28:11;34.41;33.71;37.58;;
78074;Laerm;67283;50.960;13.856;2024-03-23T02:30:37;34.39;33.50;38.32;;
78074;Laerm;67283;50.960;13.856;2024-03-23T02:33:03;34.37;33.58;37.77;;
78074;Laerm;67283;50.960;13.856;2024-03-23T02:35:28;35.00;33.60;56.03;;
78074;Laerm;67283;50.960;13.856;2024-03-23T02:37:54;34.99;33.64;54.88;;
78074;Laerm;67283;50.960;13.856;2024-03-23T02:40:21;39.32;33.48;68.32;;
78074;Laerm;67283;50.960;13.856;2024-03-23T02:42:46;34.40;33.47;38.16;;
78074;Laerm;67283;50.960;13.856;2024-03-23T02:45:11;39.21;33.82;48.04;;
78074;Laerm;67283;50.960;13.856;2024-03-23T02:47:37;34.41;33.61;37.91;;
78074;Laerm;67283;50.960;13.856;2024-03-23T02:50:03;34.49;33.69;38.76;;
78074;Laerm;67283;50.960;13.856;2024-03-23T02:52:29;34.44;33.65;38.67;;
78074;Laerm;67283;50.960;13.856;2024-03-23T02:54:54;34.45;33.50;37.40;;
78074;Laerm;67283;50.960;13.856;2024-03-23T02:57:20;34.31;33.52;37.29;;
78074;Laerm;67283;50.960;13.856;2024-03-23T02:59:45;34.30;33.52;37.22;;
78074;Laerm;67283;50.960;13.856;2024-03-23T03:02:11;34.35;33.34;42.61;;
78074;Laerm;67283;50.960;13.856;2024-03-23T03:04:36;34.33;33.54;38.13;;
78074;Laerm;67283;50.960;13.856;2024-03-23T03:07:02;34.31;33.37;37.34;;
78074;Laerm;67283;50.960;13.856;2024-03-23T03:09:27;35.13;33.32;45.28;;
78074;Laerm;67283;50.960;13.856;2024-03-23T03:11:52;38.40;33.62;52.07;;
78074;Laerm;67283;50.960;13.856;2024-03-23T03:14:18;53.81;33.72;71.77;;
78074;Laerm;67283;50.960;13.856;2024-03-23T03:16:43;56.81;33.53;72.90;;
78074;Laerm;67283;50.960;13.856;2024-03-23T03:19:09;50.69;33.73;65.20;;
78074;Laerm;67283;50.960;13.856;2024-03-23T03:21:35;57.10;33.77;71.55;;
78074;Laerm;67283;50.960;13.856;2024-03-23T03:24:01;54.47;33.76;71.28;;
78074;Laerm;67283;50.960;13.856;2024-03-23T03:26:27;42.18;33.84;56.51;;
78074;Laerm;67283;50.960;13.856;2024-03-23T03:28:52;47.75;33.76;60.38;;
78074;Laerm;67283;50.960;13.856;2024-03-23T03:31:18;48.30;33.63;59.96;;
78074;Laerm;67283;50.960;13.856;2024-03-23T03:33:43;51.80;33.79;64.01;;
78074;Laerm;67283;50.960;13.856;2024-03-23T03:36:09;49.33;33.86;63.70;;
78074;Laerm;67283;50.960;13.856;2024-03-23T03:38:34;49.13;34.09;62.80;;
78074;Laerm;67283;50.960;13.856;2024-03-23T03:41:03;49.74;34.19;62.50;;
78074;Laerm;67283;50.960;13.856;2024-03-23T03:43:29;52.37;34.05;65.55;;
78074;Laerm;67283;50.960;13.856;2024-03-23T03:45:56;52.08;33.77;69.91;;
78074;Laerm;67283;50.960;13.856;2024-03-23T03:48:22;55.19;34.65;68.58;;
78074;Laerm;67283;50.960;13.856;2024-03-23T03:50:48;54.21;34.55;70.25;;
78074;Laerm;67283;50.960;13.856;2024-03-23T03:53:13;52.49;35.56;66.36;;
78074;Laerm;67283;50.960;13.856;2024-03-23T03:55:38;52.36;34.51;65.55;;
78074;Laerm;67283;50.960;13.856;2024-03-23T03:58:04;51.58;34.54;64.27;;
78074;Laerm;67283;50.960;13.856;2024-03-23T04:00:30;54.13;35.11;69.94;;
78074;Laerm;67283;50.960;13.856;2024-03-23T04:02:55;48.05;34.97;59.54;;
78074;Laerm;67283;50.960;13.856;2024-03-23T04:05:21;54.31;35.00;69.33;;
78074;Laerm;67283;50.960;13.856;2024-03-23T04:07:46;55.50;36.71;68.22;;
78074;Laerm;67283;50.960;13.856;2024-03-23T04:10:11;52.96;39.09;64.75;;
78074;Laerm;67283;50.960;13.856;2024-03-23T04:12:37;52.99;37.57;64.99;;
78074;Laerm;67283;50.960;13.856;2024-03-23T04:15:02;57.04;39.38;70.96;;
78074;Laerm;67283;50.960;13.856;2024-03-23T04:17:29;51.65;39.22;63.19;;
78074;Laerm;67283;50.960;13.856;2024-03-23T04:19:59;57.77;40.25;69.55;;
78074;Laerm;67283;50.960;13.856;2024-03-23T04:22:25;51.64;40.41;61.24;;
78074;Laerm;67283;50.960;13.856;2024-03-23T04:24:54;58.66;41.68;76.41;;
78074;Laerm;67283;50.960;13.856;2024-03-23T04:27:20;51.23;39.62;66.47;;
78074;Laerm;67283;50.960;13.856;2024-03-23T04:29:48;47.82;38.37;57.61;;
78074;Laerm;67283;50.960;13.856;2024-03-23T04:32:14;54.02;39.30;69.31;;
78074;Laerm;67283;50.960;13.856;2024-03-23T04:34:39;45.56;38.02;60.95;;
78074;Laerm;67283;50.960;13.856;2024-03-23T04:37:05;56.56;38.05;71.23;;
78074;Laerm;67283;50.960;13.856;2024-03-23T04:39:30;52.62;37.35;69.71;;
78074;Laerm;67283;50.960;13.856;2024-03-23T04:41:55;46.21;36.60;59.22;;
78074;Laerm;67283;50.960;13.856;2024-03-23T04:44:21;56.78;38.20;73.21;;
78074;Laerm;67283;50.960;13.856;2024-03-23T04:46:46;45.61;36.86;57.22;;
78074;Laerm;67283;50.960;13.856;2024-03-23T04:49:12;50.84;36.85;63.33;;
78074;Laerm;67283;50.960;13.856;2024-03-23T04:51:37;51.79;36.35;68.49;;
78074;Laerm;67283;50.960;13.856;2024-03-23T04:54:03;44.39;36.99;54.90;;
78074;Laerm;67283;50.960;13.856;2024-03-23T04:56:29;56.14;37.54;70.74;;
78074;Laerm;67283;50.960;13.856;2024-03-23T04:58:54;53.13;37.41;67.40;;
78074;Laerm;67283;50.960;13.856;2024-03-23T05:01:20;51.38;36.05;68.40;;
78074;Laerm;67283;50.960;13.856;2024-03-23T05:03:45;55.41;37.06;67.71;;
78074;Laerm;67283;50.960;13.856;2024-03-23T05:06:10;43.56;37.14;54.48;;
78074;Laerm;67283;50.960;13.856;2024-03-23T05:08:36;53.33;36.60;67.20;;
78074;Laerm;67283;50.960;13.856;2024-03-23T05:11:01;54.33;36.57;66.24;;
78074;Laerm;67283;50.960;13.856;2024-03-23T05:13:27;50.34;37.39;66.71;;
78074;Laerm;67283;50.960;13.856;2024-03-23T05:15:53;52.55;36.44;68.71;;
78074;Laerm;67283;50.960;13.856;2024-03-23T05:18:19;52.41;37.24;66.84;;
78074;Laerm;67283;50.960;13.856;2024-03-23T05:20:44;56.38;35.92;70.54;;
78074;Laerm;67283;50.960;13.856;2024-03-23T05:23:09;57.67;36.14;71.61;;
78074;Laerm;67283;50.960;13.856;2024-03-23T05:25:35;43.11;35.54;55.62;;
78074;Laerm;67283;50.960;13.856;2024-03-23T05:28:00;52.01;35.20;68.24;;
78074;Laerm;67283;50.960;13.856;2024-03-23T05:30:26;42.12;35.47;53.87;;
78074;Laerm;67283;50.960;13.856;2024-03-23T05:32:51;51.28;35.99;68.15;;
78074;Laerm;67283;50.960;13.856;2024-03-23T05:35:16;41.96;35.90;53.32;;
78074;Laerm;67283;50.960;13.856;2024-03-23T05:37:42;53.27;35.40;71.79;;
78074;Laerm;67283;50.960;13.856;2024-03-23T05:40:07;52.03;35.56;65.90;;
78074;Laerm;67283;50.960;13.856;2024-03-23T05:42:34;53.39;36.11;69.93;;
78074;Laerm;67283;50.960;13.856;2024-03-23T05:44:59;52.77;36.98;71.06;;
78074;Laerm;67283;50.960;13.856;2024-03-23T05:47:25;55.88;36.72;69.19;;
78074;Laerm;67283;50.960;13.856;2024-03-23T05:49:50;51.73;35.21;67.90;;
78074;Laerm;67283;50.960;13.856;2024-03-23T05:52:17;42.41;35.36;50.69;;
78074;Laerm;67283;50.960;13.856;2024-03-23T05:54:42;52.84;36.01;66.60;;
78074;Laerm;67283;50.960;13.856;2024-03-23T05:57:08;57.90;37.24;71.61;;
78074;Laerm;67283;50.960;13.856;2024-03-23T05:59:34;57.00;35.53;71.77;;
78074;Laerm;67283;50.960;13.856;2024-03-23T06:01:59;51.37;34.68;67.02;;
78074;Laerm;67283;50.960;13.856;2024-03-23T06:04:25;53.48;35.70;68.23;;
78074;Laerm;67283;50.960;13.856;2024-03-23T06:06:51;43.60;35.36;52.41;;
78074;Laerm;67283;50.960;13.856;2024-03-23T06:09:17;57.56;36.40;71.37;;
78074;Laerm;67283;50.960;13.856;2024-03-23T06:11:42;54.29;36.76;68.94;;
78074;Laerm;67283;50.960;13.856;2024-03-23T06:14:08;54.32;35.26;71.94;;
78074;Laerm;67283;50.960;13.856;2024-03-23T06:16:33;55.75;35.40;69.78;;
78074;Laerm;67283;50.960;13.856;2024-03-23T06:18:59;52.90;35.29;66.78;;
78074;Laerm;67283;50.960;13.856;2024-03-23T06:21:25;54.25;35.39;71.37;;
78074;Laerm;67283;50.960;13.856;2024-03-23T06:23:53;45.54;35.64;56.82;;
78074;Laerm;67283;50.960;13.856;2024-03-23T06:26:19;49.55;35.60;63.75;;
78074;Laerm;67283;50.960;13.856;2024-03-23T06:28:44;60.22;37.16;73.87;;
78074;Laerm;67283;50.960;13.856;2024-03-23T06:31:10;56.58;37.58;69.25;;
78074;Laerm;67283;50.960;13.856;2024-03-23T06:33:35;52.06;35.16;66.81;;
78074;Laerm;67283;50.960;13.856;2024-03-23T06:36:01;41.04;35.13;51.93;;
78074;Laerm;67283;50.960;13.856;2024-03-23T06:38:28;56.14;35.83;70.02;;
78074;Laerm;67283;50.960;13.856;2024-03-23T06:40:53;54.62;36.07;68.71;;
78074;Laerm;67283;50.960;13.856;2024-03-23T06:43:19;57.41;36.24;69.83;;
78074;Laerm;67283;50.960;13.856;2024-03-23T06:45:44;51.22;36.29;66.74;;
78074;Laerm;67283;50.960;13.856;2024-03-23T06:48:17;54.23;36.03;69.55;;
78074;Laerm;67283;50.960;13.856;2024-03-23T06:50:42;54.17;35.73;70.00;;
78074;Laerm;67283;50.960;13.856;2024-03-23T06:53:07;55.88;36.83;69.19;;
78074;Laerm;67283;50.960;13.856;2024-03-23T06:55:33;53.35;37.04;66.94;;
78074;Laerm;67283;50.960;13.856;2024-03-23T06:57:58;57.34;36.41;71.72;;
78074;Laerm;67283;50.960;13.856;2024-03-23T07:00:24;55.75;37.97;71.35;;
78074;Laerm;67283;50.960;13.856;2024-03-23T07:02:50;56.75;37.99;73.46;;
78074;Laerm;67283;50.960;13.856;2024-03-23T07:05:15;57.23;37.25;71.20;;
78074;Laerm;67283;50.960;13.856;2024-03-23T07:07:40;57.80;38.97;72.37;;
78074;Laerm;67283;50.960;13.856;2024-03-23T07:10:06;58.82;37.72;72.37;;
78074;Laerm;67283;50.960;13.856;2024-03-23T07:12:31;57.20;37.69;72.59;;
78074;Laerm;67283;50.960;13.856;2024-03-23T07:14:57;60.04;37.52;75.37;;
78074;Laerm;67283;50.960;13.856;2024-03-23T07:17:22;61.76;38.23;72.78;;
78074;Laerm;67283;50.960;13.856;2024-03-23T07:19:48;59.77;36.73;73.14;;
78074;Laerm;67283;50.960;13.856;2024-03-23T07:22:13;56.51;35.97;72.69;;
78074;Laerm;67283;50.960;13.856;2024-03-23T07:24:39;57.34;35.71;71.85;;
78074;Laerm;67283;50.960;13.856;2024-03-23T07:27:05;57.43;35.89;69.87;;
78074;Laerm;67283;50.960;13.856;2024-03-23T07:29:31;57.40;39.51;70.20;;
78074;Laerm;67283;50.960;13.856;2024-03-23T07:31:56;59.32;36.32;73.04;;
78074;Laerm;67283;50.960;13.856;2024-03-23T07:34:22;61.19;35.70;73.33;;
78074;Laerm;67283;50.960;13.856;2024-03-23T07:36:47;40.30;35.47;59.01;;
78074;Laerm;67283;50.960;13.856;2024-03-23T07:39:12;58.33;35.52;69.92;;
78074;Laerm;67283;50.960;13.856;2024-03-23T07:41:38;61.06;35.92;72.97;;
78074;Laerm;67283;50.960;13.856;2024-03-23T07:44:03;44.01;35.30;60.52;;
78074;Laerm;67283;50.960;13.856;2024-03-23T07:46:29;52.57;35.83;68.50;;
78074;Laerm;67283;50.960;13.856;2024-03-23T07:48:54;61.24;37.75;72.37;;
78074;Laerm;67283;50.960;13.856;2024-03-23T07:51:23;56.67;39.28;69.69;;
78074;Laerm;67283;50.960;13.856;2024-03-23T07:53:48;55.05;36.06;68.95;;
78074;Laerm;67283;50.960;13.856;2024-03-23T07:56:14;59.49;37.34;69.84;;
78074;Laerm;67283;50.960;13.856;2024-03-23T07:58:46;65.45;36.06;82.13;;
78074;Laerm;67283;50.960;13.856;2024-03-23T08:01:13;59.31;38.21;69.99;;
78074;Laerm;67283;50.960;13.856;2024-03-23T08:03:40;57.42;35.64;72.49;;
78074;Laerm;67283;50.960;13.856;2024-03-23T08:06:15;57.36;35.34;72.68;;
78074;Laerm;67283;50.960;13.856;2024-03-23T08:08:41;55.57;35.41;70.82;;
78074;Laerm;67283;50.960;13.856;2024-03-23T08:11:07;59.73;37.46;73.34;;
78074;Laerm;67283;50.960;13.856;2024-03-23T08:13:33;62.54;39.13;74.28;;
78074;Laerm;67283;50.960;13.856;2024-03-23T08:15:59;58.91;36.04;70.25;;
78074;Laerm;67283;50.960;13.856;2024-03-23T08:18:25;59.58;37.95;71.09;;
78074;Laerm;67283;50.960;13.856;2024-03-23T08:20:57;56.63;36.65;70.74;;
78074;Laerm;67283;50.960;13.856;2024-03-23T08:23:23;58.70;37.92;70.77;;
78074;Laerm;67283;50.960;13.856;2024-03-23T08:25:48;61.97;41.59;72.54;;
78074;Laerm;67283;50.960;13.856;2024-03-23T08:28:14;63.00;36.91;74.00;;
78074;Laerm;67283;50.960;13.856;2024-03-23T08:30:40;58.97;36.42;73.86;;
78074;Laerm;67283;50.960;13.856;2024-03-23T08:33:05;60.02;38.09;71.81;;
78074;Laerm;67283;50.960;13.856;2024-03-23T08:35:30;57.18;36.59;72.08;;
78074;Laerm;67283;50.960;13.856;2024-03-23T08:37:56;61.87;35.25;72.10;;
78074;Laerm;67283;50.960;13.856;2024-03-23T08:40:21;54.65;35.37;69.62;;
78074;Laerm;67283;50.960;13.856;2024-03-23T08:42:47;61.09;38.08;74.34;;
78074;Laerm;67283;50.960;13.856;2024-03-23T08:45:12;57.08;42.34;69.97;;
78074;Laerm;67283;50.960;13.856;2024-03-23T08:47:38;59.15;41.81;75.82;;
78074;Laerm;67283;50.960;13.856;2024-03-23T08:50:03;55.30;38.93;68.37;;
78074;Laerm;67283;50.960;13.856;2024-03-23T08:52:29;60.76;45.00;73.00;;
78074;Laerm;67283;50.960;13.856;2024-03-23T08:54:55;55.50;42.89;69.50;;
78074;Laerm;67283;50.960;13.856;2024-03-23T08:57:21;61.07;44.22;71.83;;
78074;Laerm;67283;50.960;13.856;2024-03-23T08:59:46;53.92;41.20;67.63;;
78074;Laerm;67283;50.960;13.856;2024-03-23T09:02:12;60.80;42.81;76.82;;
78074;Laerm;67283;50.960;13.856;2024-03-23T09:04:37;61.47;44.93;71.98;;
78074;Laerm;67283;50.960;13.856;2024-03-23T09:07:02;58.79;40.01;69.53;;
78074;Laerm;67283;50.960;13.856;2024-03-23T09:09:29;56.67;38.55;70.50;;
78074;Laerm;67283;50.960;13.856;2024-03-23T09:11:55;61.68;39.02;72.65;;
78074;Laerm;67283;50.960;13.856;2024-03-23T09:14:21;58.02;38.15;70.77;;
78074;Laerm;67283;50.960;13.856;2024-03-23T09:16:49;58.78;39.64;70.28;;
78074;Laerm;67283;50.960;13.856;2024-03-23T09:19:14;59.31;41.47;71.27;;
78074;Laerm;67283;50.960;13.856;2024-03-23T09:21:40;60.97;42.70;71.85;;
78074;Laerm;67283;50.960;13.856;2024-03-23T09:24:05;57.73;38.16;73.29;;
78074;Laerm;67283;50.960;13.856;2024-03-23T09:26:31;58.80;38.33;72.32;;
78074;Laerm;67283;50.960;13.856;2024-03-23T09:28:58;58.65;39.98;70.79;;
78074;Laerm;67283;50.960;13.856;2024-03-23T09:31:24;58.63;41.70;71.49;;
78074;Laerm;67283;50.960;13.856;2024-03-23T09:33:49;59.57;42.49;75.59;;
78074;Laerm;67283;50.960;13.856;2024-03-23T09:36:15;63.09;42.12;72.85;;
78074;Laerm;67283;50.960;13.856;2024-03-23T09:38:41;60.16;40.19;74.85;;
78074;Laerm;67283;50.960;13.856;2024-03-23T09:41:08;61.25;38.79;73.29;;
78074;Laerm;67283;50.960;13.856;2024-03-23T09:43:34;62.11;39.65;77.04;;
78074;Laerm;67283;50.960;13.856;2024-03-23T09:45:59;60.16;36.27;73.70;;
78074;Laerm;67283;50.960;13.856;2024-03-23T09:48:25;58.65;35.85;72.09;;
78074;Laerm;67283;50.960;13.856;2024-03-23T09:50:50;61.12;36.73;73.29;;
78074;Laerm;67283;50.960;13.856;2024-03-23T09:53:16;62.85;36.27;74.69;;
78074;Laerm;67283;50.960;13.856;2024-03-23T09:55:41;61.27;36.84;71.67;;
78074;Laerm;67283;50.960;13.856;2024-03-23T09:58:08;59.95;43.29;74.26;;
78074;Laerm;67283;50.960;13.856;2024-03-23T10:00:34;60.31;43.56;72.57;;
78074;Laerm;67283;50.960;13.856;2024-03-23T10:03:00;61.17;42.29;74.93;;
78074;Laerm;67283;50.960;13.856;2024-03-23T10:05:29;59.80;42.90;73.59;;
78074;Laerm;67283;50.960;13.856;2024-03-23T10:07:57;60.47;39.52;74.46;;
78074;Laerm;67283;50.960;13.856;2024-03-23T10:10:22;61.52;43.44;74.76;;
78074;Laerm;67283;50.960;13.856;2024-03-23T10:12:50;58.63;39.84;71.52;;
78074;Laerm;67283;50.960;13.856;2024-03-23T10:15:22;58.49;41.72;72.52;;
78074;Laerm;67283;50.960;13.856;2024-03-23T10:17:48;58.19;41.24;70.96;;
78074;Laerm;67283;50.960;13.856;2024-03-23T10:20:18;60.44;40.09;72.75;;
78074;Laerm;67283;50.960;13.856;2024-03-23T10:22:44;63.61;40.45;75.14;;
78074;Laerm;67283;50.960;13.856;2024-03-23T10:25:11;58.38;37.51;73.47;;
78074;Laerm;67283;50.960;13.856;2024-03-23T10:27:37;59.02;38.90;73.52;;
78074;Laerm;67283;50.960;13.856;2024-03-23T10:30:14;58.72;40.43;73.60;;
78074;Laerm;67283;50.960;13.856;2024-03-23T10:32:42;63.05;40.08;74.55;;
78074;Laerm;67283;50.960;13.856;2024-03-23T10:35:17;58.02;42.11;71.27;;
78074;Laerm;67283;50.960;13.856;2024-03-23T10:37:49;58.61;39.70;73.93;;
78074;Laerm;67283;50.960;13.856;2024-03-23T10:40:15;56.60;38.48;71.11;;
78074;Laerm;67283;50.960;13.856;2024-03-23T10:42:40;62.14;39.99;73.50;;
78074;Laerm;67283;50.960;13.856;2024-03-23T10:45:06;57.95;38.41;74.02;;
78074;Laerm;67283;50.960;13.856;2024-03-23T10:47:35;61.46;38.49;75.70;;
78074;Laerm;67283;50.960;13.856;2024-03-23T10:50:01;54.23;37.27;70.48;;
78074;Laerm;67283;50.960;13.856;2024-03-23T10:52:26;59.60;37.76;72.87;;
78074;Laerm;67283;50.960;13.856;2024-03-23T10:54:52;61.96;39.24;74.57;;
78074;Laerm;67283;50.960;13.856;2024-03-23T10:57:18;60.52;37.52;76.43;;
78074;Laerm;67283;50.960;13.856;2024-03-23T10:59:45;60.72;35.57;73.58;;
78074;Laerm;67283;50.960;13.856;2024-03-23T11:02:20;65.17;35.34;82.56;;
78074;Laerm;67283;50.960;13.856;2024-03-23T11:04:45;60.23;40.36;71.45;;
78074;Laerm;67283;50.960;13.856;2024-03-23T11:09:51;58.94;35.75;73.57;;
78074;Laerm;67283;50.960;13.856;2024-03-23T11:14:52;61.23;35.70;71.56;;
78074;Laerm;67283;50.960;13.856;2024-03-23T11:17:18;59.90;35.15;73.41;;
78074;Laerm;67283;50.960;13.856;2024-03-23T11:19:44;60.11;35.67;73.52;;
78074;Laerm;67283;50.960;13.856;2024-03-23T11:22:09;62.97;36.19;74.27;;
78074;Laerm;67283;50.960;13.856;2024-03-23T11:24:35;58.40;36.10;69.83;;
78074;Laerm;67283;50.960;13.856;2024-03-23T11:27:00;63.38;35.80;74.66;;
78074;Laerm;67283;50.960;13.856;2024-03-23T11:29:29;60.04;36.19;77.69;;
78074;Laerm;67283;50.960;13.856;2024-03-23T11:31:55;58.23;37.45;73.72;;
78074;Laerm;67283;50.960;13.856;2024-03-23T11:34:20;59.68;37.81;73.60;;
78074;Laerm;67283;50.960;13.856;2024-03-23T11:36:46;59.93;39.50;72.98;;
78074;Laerm;67283;50.960;13.856;2024-03-23T11:39:17;60.60;36.53;74.24;;
78074;Laerm;67283;50.960;13.856;2024-03-23T11:41:49;63.61;37.58;76.44;;
78074;Laerm;67283;50.960;13.856;2024-03-23T11:44:16;58.87;36.02;74.42;;
78074;Laerm;67283;50.960;13.856;2024-03-23T11:46:41;55.96;35.74;71.41;;
78074;Laerm;67283;50.960;13.856;2024-03-23T11:49:07;57.36;36.40;72.27;;
78074;Laerm;67283;50.960;13.856;2024-03-23T11:51:44;64.90;36.76;78.77;;
78074;Laerm;67283;50.960;13.856;2024-03-23T11:54:09;59.72;36.27;72.23;;
78074;Laerm;67283;50.960;13.856;2024-03-23T11:56:35;58.04;37.09;72.24;;
78074;Laerm;67283;50.960;13.856;2024-03-23T11:59:00;56.54;35.66;71.60;;
78074;Laerm;67283;50.960;13.856;2024-03-23T12:01:25;58.06;36.20;69.17;;
78074;Laerm;67283;50.960;13.856;2024-03-23T12:03:51;61.19;36.53;71.53;;
78074;Laerm;67283;50.960;13.856;2024-03-23T12:06:19;61.54;36.51;74.43;;
78074;Laerm;67283;50.960;13.856;2024-03-23T12:08:45;59.78;40.06;71.28;;
78074;Laerm;67283;50.960;13.856;2024-03-23T12:11:11;58.28;37.12;72.27;;
78074;Laerm;67283;50.960;13.856;2024-03-23T12:13:37;54.71;36.57;73.40;;
78074;Laerm;67283;50.960;13.856;2024-03-23T12:16:18;59.19;37.33;72.22;;
78074;Laerm;67283;50.960;13.856;2024-03-23T12:18:46;56.65;36.87;72.82;;
78074;Laerm;67283;50.960;13.856;2024-03-23T12:21:12;58.61;37.44;71.92;;
78074;Laerm;67283;50.960;13.856;2024-03-23T12:23:40;61.48;36.79;74.12;;
78074;Laerm;67283;50.960;13.856;2024-03-23T12:26:06;58.28;35.89;71.17;;
78074;Laerm;67283;50.960;13.856;2024-03-23T12:28:32;53.43;35.14;67.43;;
78074;Laerm;67283;50.960;13.856;2024-03-23T12:30:58;60.52;36.98;71.44;;
78074;Laerm;67283;50.960;13.856;2024-03-23T12:33:23;42.81;36.34;57.46;;
78074;Laerm;67283;50.960;13.856;2024-03-23T12:35:49;58.99;37.62;72.75;;
78074;Laerm;67283;50.960;13.856;2024-03-23T12:38:15;58.95;37.47;70.89;;
78074;Laerm;67283;50.960;13.856;2024-03-23T12:40:41;60.88;36.80;72.78;;
78074;Laerm;67283;50.960;13.856;2024-03-23T12:43:06;57.39;36.40;71.36;;
78074;Laerm;67283;50.960;13.856;2024-03-23T12:45:32;56.51;36.47;69.96;;
78074;Laerm;67283;50.960;13.856;2024-03-23T12:47:58;58.56;38.30;71.38;;
78074;Laerm;67283;50.960;13.856;2024-03-23T12:50:23;56.90;35.72;71.48;;
78074;Laerm;67283;50.960;13.856;2024-03-23T12:52:48;59.52;37.26;72.08;;
78074;Laerm;67283;50.960;13.856;2024-03-23T12:55:14;55.89;35.66;69.10;;
78074;Laerm;67283;50.960;13.856;2024-03-23T12:57:39;60.89;39.42;72.32;;
78074;Laerm;67283;50.960;13.856;2024-03-23T13:00:06;58.06;35.46;70.25;;
78074;Laerm;67283;50.960;13.856;2024-03-23T13:02:31;63.07;37.34;74.39;;
78074;Laerm;67283;50.960;13.856;2024-03-23T13:04:57;60.65;36.76;73.48;;
78074;Laerm;67283;50.960;13.856;2024-03-23T13:07:23;60.86;38.34;75.93;;
78074;Laerm;67283;50.960;13.856;2024-03-23T13:09:52;60.14;37.32;72.27;;
78074;Laerm;67283;50.960;13.856;2024-03-23T13:12:17;57.74;36.49;69.73;;
78074;Laerm;67283;50.960;13.856;2024-03-23T13:14:44;60.16;38.60;71.65;;
78074;Laerm;67283;50.960;13.856;2024-03-23T13:17:09;58.82;36.25;70.07;;
78074;Laerm;67283;50.960;13.856;2024-03-23T13:19:35;56.84;35.90;68.86;;
78074;Laerm;67283;50.960;13.856;2024-03-23T13:22:00;60.48;35.93;72.13;;
78074;Laerm;67283;50.960;13.856;2024-03-23T13:24:26;60.43;35.82;71.85;;
78074;Laerm;67283;50.960;13.856;2024-03-23T13:26:52;57.55;35.46;75.61;;
78074;Laerm;67283;50.960;13.856;2024-03-23T13:29:21;55.93;36.00;69.36;;
78074;Laerm;67283;50.960;13.856;2024-03-23T13:31:50;60.41;36.80;71.29;;
78074;Laerm;67283;50.960;13.856;2024-03-23T13:34:16;58.09;37.39;72.36;;
78074;Laerm;67283;50.960;13.856;2024-03-23T13:36:42;58.46;34.37;73.20;;
78074;Laerm;67283;50.960;13.856;2024-03-23T13:39:08;55.23;34.91;70.84;;
78074;Laerm;67283;50.960;13.856;2024-03-23T13:41:39;57.51;34.20;69.60;;
78074;Laerm;67283;50.960;13.856;2024-03-23T13:44:05;58.43;34.41;72.02;;
78074;Laerm;67283;50.960;13.856;2024-03-23T13:46:31;56.44;34.31;69.73;;
78074;Laerm;67283;50.960;13.856;2024-03-23T13:48:56;59.60;34.56;72.97;;
78074;Laerm;67283;50.960;13.856;2024-03-23T13:51:25;56.23;35.09;71.10;;
78074;Laerm;67283;50.960;13.856;2024-03-23T13:53:52;58.25;35.02;70.45;;
78074;Laerm;67283;50.960;13.856;2024-03-23T13:56:17;61.48;35.30;76.32;;
78074;Laerm;67283;50.960;13.856;2024-03-23T13:58:43;59.64;35.32;74.04;;
78074;Laerm;67283;50.960;13.856;2024-03-23T14:01:12;57.69;34.52;69.86;;
78074;Laerm;67283;50.960;13.856;2024-03-23T14:03:37;61.37;39.47;72.85;;
78074;Laerm;67283;50.960;13.856;2024-03-23T14:06:02;60.22;39.16;70.79;;
78074;Laerm;67283;50.960;13.856;2024-03-23T14:08:28;56.39;36.74;70.36;;
78074;Laerm;67283;50.960;13.856;2024-03-23T14:10:53;52.26;37.37;69.67;;
78074;Laerm;67283;50.960;13.856;2024-03-23T14:13:19;55.30;34.61;68.78;;
78074;Laerm;67283;50.960;13.856;2024-03-23T14:15:45;58.65;37.03;69.90;;
78074;Laerm;67283;50.960;13.856;2024-03-23T14:18:10;58.70;35.46;73.38;;
78074;Laerm;67283;50.960;13.856;2024-03-23T14:20:36;55.43;35.19;71.22;;
78074;Laerm;67283;50.960;13.856;2024-03-23T14:23:01;60.53;35.03;71.84;;
78074;Laerm;67283;50.960;13.856;2024-03-23T14:25:26;59.97;35.36;73.04;;